createdAt,value
2023-03-18T00:01:20.140Z,2.70
2023-03-18T00:03:48.183Z,2.57
2023-03-18T00:06:18.604Z,2.50
2023-03-18T00:08:47.308Z,2.50
2023-03-18T00:11:18.589Z,2.30
2023-03-18T00:13:46.586Z,2.50
2023-03-18T00:16:13.832Z,2.60
2023-03-18T00:18:41.674Z,2.60
2023-03-18T00:21:09.539Z,2.83
2023-03-18T00:23:37.010Z,2.60
2023-03-18T00:26:04.917Z,2.80
2023-03-18T00:28:32.532Z,2.50
2023-03-18T00:31:09.054Z,2.70
2023-03-18T00:33:38.220Z,2.77
2023-03-18T00:36:06.516Z,2.67
2023-03-18T00:38:33.613Z,2.70
2023-03-18T00:41:12.458Z,2.70
2023-03-18T00:43:52.526Z,2.50
2023-03-18T00:46:31.231Z,2.80
2023-03-18T00:49:01.084Z,2.30
2023-03-18T00:51:31.408Z,2.50
2023-03-18T00:54:01.847Z,2.73
2023-03-18T00:56:31.978Z,2.80
2023-03-18T00:58:59.982Z,2.87
2023-03-18T01:01:29.606Z,2.90
2023-03-18T01:03:56.843Z,2.40
2023-03-18T01:06:28.424Z,2.60
2023-03-18T01:08:56.838Z,2.70
2023-03-18T01:11:24.104Z,2.60
2023-03-18T01:13:51.664Z,2.27
2023-03-18T01:16:21.021Z,2.20
2023-03-18T01:18:48.324Z,2.10
2023-03-18T01:21:15.427Z,2.00
2023-03-18T01:23:42.430Z,1.90
2023-03-18T01:26:10.632Z,2.10
2023-03-18T01:28:37.570Z,2.20
2023-03-18T01:31:05.484Z,2.13
2023-03-18T01:33:33.207Z,2.20
2023-03-18T01:36:02.325Z,2.10
2023-03-18T01:38:30.320Z,2.20
2023-03-18T01:40:59.227Z,2.10
2023-03-18T01:43:34.027Z,2.30
2023-03-18T01:46:22.099Z,1.80
2023-03-18T01:48:49.633Z,1.67
2023-03-18T01:51:16.587Z,1.70
2023-03-18T01:53:47.384Z,1.67
2023-03-18T01:56:15.927Z,1.57
2023-03-18T01:58:48.035Z,1.73
2023-03-18T02:01:28.746Z,1.70
2023-03-18T02:03:56.520Z,1.60
2023-03-18T02:06:24.586Z,1.40
2023-03-18T02:08:51.592Z,1.70
2023-03-18T02:11:18.502Z,1.60
2023-03-18T02:13:46.732Z,1.70
2023-03-18T02:16:25.696Z,1.67
2023-03-18T02:18:59.961Z,1.70
2023-03-18T02:21:51.930Z,1.70
2023-03-18T02:24:31.526Z,1.50
2023-03-18T02:27:02.548Z,1.70
2023-03-18T02:29:33.272Z,1.70
2023-03-18T02:32:06.037Z,2.10
2023-03-18T02:34:34.774Z,2.00
2023-03-18T02:37:02.089Z,1.87
2023-03-18T02:39:31.324Z,1.80
2023-03-18T02:41:58.214Z,1.90
2023-03-18T02:44:25.505Z,1.80
2023-03-18T02:47:08.915Z,2.00
2023-03-18T02:49:36.266Z,1.80
2023-03-18T02:52:04.225Z,2.03
2023-03-18T02:54:31.789Z,1.97
2023-03-18T02:56:58.802Z,1.53
2023-03-18T02:59:26.593Z,1.73
2023-03-18T03:01:54.108Z,1.83
2023-03-18T03:04:23.650Z,2.37
2023-03-18T03:06:53.613Z,2.13
2023-03-18T03:09:22.713Z,2.17
2023-03-18T03:11:49.611Z,2.20
2023-03-18T03:14:16.820Z,2.17
2023-03-18T03:16:44.149Z,2.00
2023-03-18T03:19:11.134Z,1.70
2023-03-18T03:21:38.063Z,2.30
2023-03-18T03:24:06.629Z,2.20
2023-03-18T03:26:34.337Z,2.30
2023-03-18T03:29:01.978Z,2.40
2023-03-18T03:31:28.973Z,2.37
2023-03-18T03:33:56.286Z,2.43
2023-03-18T03:36:23.320Z,2.30
2023-03-18T03:38:50.473Z,2.30
2023-03-18T03:41:17.468Z,2.93
2023-03-18T03:43:44.798Z,3.40
2023-03-18T03:46:11.902Z,3.03
2023-03-18T03:48:39.451Z,3.00
2023-03-18T03:51:07.930Z,2.50
2023-03-18T03:53:35.980Z,2.50
2023-03-18T03:56:03.958Z,2.60
2023-03-18T03:58:30.887Z,4.60
2023-03-18T04:00:58.286Z,2.30
2023-03-18T04:03:25.671Z,2.67
2023-03-18T04:05:53.594Z,2.37
2023-03-18T04:08:20.661Z,2.40
2023-03-18T04:10:47.671Z,2.57
2023-03-18T04:13:14.596Z,2.47
2023-03-18T04:15:41.538Z,2.60
2023-03-18T04:18:08.843Z,2.67
2023-03-18T04:20:37.563Z,2.30
2023-03-18T04:23:04.848Z,2.70
2023-03-18T04:25:33.109Z,2.57
2023-03-18T04:28:00.017Z,2.27
2023-03-18T04:30:27.437Z,2.37
2023-03-18T04:32:54.991Z,2.20
2023-03-18T04:35:23.348Z,2.20
2023-03-18T04:37:50.556Z,2.50
2023-03-18T04:40:18.284Z,2.53
2023-03-18T04:42:47.652Z,2.43
2023-03-18T04:45:16.191Z,2.50
2023-03-18T04:47:45.198Z,2.47
2023-03-18T04:50:14.197Z,2.60
2023-03-18T04:52:42.647Z,2.23
2023-03-18T04:55:10.605Z,2.40
2023-03-18T04:57:38.508Z,2.30
2023-03-18T05:00:11.605Z,2.30
2023-03-18T05:02:39.861Z,2.07
2023-03-18T05:05:07.849Z,2.13
2023-03-18T05:07:34.790Z,2.40
2023-03-18T05:10:01.912Z,4.27
2023-03-18T05:12:31.470Z,2.43
2023-03-18T05:14:58.353Z,2.40
2023-03-18T05:17:25.792Z,2.57
2023-03-18T05:19:52.918Z,2.40
2023-03-18T05:22:21.946Z,2.47
2023-03-18T05:24:50.518Z,2.20
2023-03-18T05:27:18.631Z,4.10
2023-03-18T05:29:46.247Z,2.23
2023-03-18T05:32:14.656Z,2.40
2023-03-18T05:34:42.061Z,2.40
2023-03-18T05:37:13.564Z,2.27
2023-03-18T05:39:43.698Z,2.10
2023-03-18T05:42:12.588Z,2.27
2023-03-18T05:44:40.384Z,2.13
2023-03-18T05:47:08.409Z,2.30
2023-03-18T05:49:35.702Z,2.37
2023-03-18T05:52:03.114Z,2.17
2023-03-18T05:54:30.354Z,2.37
2023-03-18T05:56:58.170Z,2.07
2023-03-18T05:59:25.372Z,2.20
2023-03-18T06:01:53.730Z,2.30
2023-03-18T06:04:20.828Z,2.60
2023-03-18T06:06:48.288Z,2.10
2023-03-18T06:09:16.511Z,2.40
2023-03-18T06:11:44.479Z,2.17
2023-03-18T06:14:12.678Z,2.50
2023-03-18T06:16:41.624Z,2.20
2023-03-18T06:19:10.666Z,5.80
2023-03-18T06:21:41.479Z,1.93
2023-03-18T06:24:09.506Z,2.40
2023-03-18T06:26:36.469Z,1.80
2023-03-18T06:29:05.138Z,1.73
2023-03-18T06:31:32.245Z,2.80
2023-03-18T06:34:01.322Z,2.20
2023-03-18T06:36:28.618Z,2.20
2023-03-18T06:38:55.989Z,1.80
2023-03-18T06:41:23.094Z,1.93
2023-03-18T06:43:51.636Z,1.80
2023-03-18T06:46:18.713Z,2.13
2023-03-18T06:48:46.461Z,2.10
2023-03-18T06:51:13.709Z,2.10
2023-03-18T17:13:22.947Z,1.38
2023-03-18T17:15:50.844Z,1.50
2023-03-18T17:18:21.275Z,1.67
2023-03-18T17:20:49.584Z,1.73
2023-03-18T17:23:21.199Z,1.97
2023-03-18T17:25:56.999Z,1.80
2023-03-18T17:28:32.848Z,4.53
2023-03-18T17:31:00.088Z,7.00
2023-03-18T17:33:33.372Z,7.27
2023-03-18T17:36:03.751Z,7.03
2023-03-18T17:38:31.318Z,3.80
2023-03-18T17:40:59.580Z,3.53
2023-03-18T17:43:29.371Z,2.70
2023-03-18T17:45:57.959Z,2.20
2023-03-18T17:48:29.803Z,2.00
2023-03-18T17:51:12.938Z,2.33
2023-03-18T17:53:43.896Z,2.90
2023-03-18T17:56:14.144Z,3.83
2023-03-18T17:58:47.031Z,8.00
2023-03-18T18:01:23.187Z,3.70
2023-03-18T18:03:50.709Z,3.57
2023-03-18T18:06:20.200Z,4.20
2023-03-18T18:08:48.988Z,5.53
2023-03-18T18:11:28.292Z,4.73
2023-03-18T18:14:00.822Z,4.53
2023-03-18T18:16:27.791Z,5.37
2023-03-18T18:18:54.843Z,5.20
2023-03-18T18:21:24.285Z,5.10
2023-03-18T18:23:51.329Z,5.77
2023-03-18T18:26:20.112Z,7.10
2023-03-18T18:28:50.576Z,7.20
2023-03-18T18:31:19.677Z,6.87
2023-03-18T18:33:49.685Z,6.83
2023-03-18T18:36:17.926Z,7.47
2023-03-18T18:38:45.177Z,6.30
2023-03-18T18:41:12.405Z,7.00
2023-03-18T18:43:39.391Z,5.70
2023-03-18T18:46:14.839Z,5.77
2023-03-18T18:48:44.538Z,6.70
2023-03-18T18:51:18.282Z,5.50
2023-03-18T18:53:46.500Z,6.20
2023-03-18T18:56:22.245Z,9.40
2023-03-18T18:58:51.782Z,8.43
2023-03-18T19:01:19.503Z,8.57
2023-03-18T19:03:47.257Z,8.77
2023-03-18T19:06:31.990Z,5.97
2023-03-18T19:09:01.549Z,5.33
2023-03-18T19:11:29.050Z,5.00
2023-03-18T19:14:17.423Z,5.30
2023-03-18T19:16:44.850Z,5.30
2023-03-18T19:19:18.880Z,4.80
2023-03-18T19:21:50.831Z,4.37
2023-03-18T19:24:30.126Z,4.30
2023-03-18T19:27:02.505Z,3.90
2023-03-18T19:29:30.111Z,5.60
2023-03-18T19:31:57.129Z,8.50
2023-03-18T19:34:24.686Z,6.17
2023-03-18T19:36:54.593Z,5.80
2023-03-18T19:39:22.814Z,4.73
2023-03-18T19:41:51.194Z,4.23
2023-03-18T19:44:21.634Z,4.17
2023-03-18T19:46:51.400Z,3.57
2023-03-18T19:49:22.880Z,3.43
2023-03-18T19:51:50.211Z,3.43
2023-03-18T19:54:28.844Z,3.10
2023-03-18T19:57:00.235Z,4.13
2023-03-18T19:59:38.271Z,3.33
2023-03-18T20:02:35.079Z,3.30
2023-03-18T20:05:04.339Z,3.00
2023-03-18T20:07:32.803Z,3.23
2023-03-18T20:09:59.980Z,3.00
2023-03-18T20:12:36.263Z,2.97
2023-03-18T20:15:20.087Z,3.80
2023-03-18T20:17:48.730Z,3.73
2023-03-18T20:20:22.894Z,4.40
2023-03-18T20:23:04.626Z,5.10
2023-03-18T20:25:36.453Z,4.80
2023-03-18T20:28:04.810Z,4.40
2023-03-18T20:30:37.697Z,5.40
2023-03-18T20:33:05.730Z,4.10
2023-03-18T20:35:35.231Z,5.40
2023-03-18T20:38:26.392Z,6.23
2023-03-18T20:40:53.315Z,5.33
2023-03-18T20:43:22.563Z,6.50
2023-03-18T20:45:51.779Z,5.73
2023-03-18T20:48:19.995Z,5.90
2023-03-18T20:50:46.992Z,5.70
2023-03-18T20:53:20.134Z,5.70
2023-03-18T20:55:47.537Z,5.80
2023-03-18T20:58:16.790Z,6.23
2023-03-18T21:00:45.344Z,6.57
2023-03-18T21:03:27.243Z,6.03
2023-03-18T21:05:57.765Z,5.53
2023-03-18T21:08:26.288Z,5.17
2023-03-18T21:10:54.059Z,5.33
2023-03-18T21:13:36.232Z,4.80
2023-03-18T21:16:10.637Z,4.40
2023-03-18T21:18:37.666Z,4.60
2023-03-18T21:21:04.679Z,4.77
2023-03-18T21:23:34.187Z,5.10
2023-03-18T21:26:01.830Z,4.10
2023-03-18T21:28:29.997Z,4.10
2023-03-18T21:30:58.424Z,4.33
2023-03-18T21:33:34.100Z,4.00
2023-03-18T21:36:02.092Z,4.23
2023-03-18T21:38:34.807Z,4.57
2023-03-18T21:41:02.055Z,4.20
2023-03-18T21:43:37.203Z,5.10
2023-03-18T21:46:06.681Z,5.07
2023-03-18T21:48:33.725Z,4.90
2023-03-18T21:51:00.747Z,5.83
2023-03-18T21:53:28.383Z,5.73
2023-03-18T21:55:56.025Z,7.10
2023-03-18T21:58:25.467Z,7.00
2023-03-18T22:00:55.091Z,6.63
2023-03-18T22:03:24.272Z,6.53
2023-03-18T22:05:52.485Z,6.90
2023-03-18T22:08:20.644Z,6.60
2023-03-18T22:10:49.732Z,7.10
2023-03-18T22:13:24.610Z,7.20
2023-03-18T22:15:53.167Z,6.67
2023-03-18T22:18:21.128Z,7.03
2023-03-18T22:20:50.377Z,8.30
2023-03-18T22:23:20.865Z,8.90
2023-03-18T22:25:51.556Z,9.37
2023-03-18T22:28:18.732Z,8.57
2023-03-18T22:30:51.877Z,8.63
2023-03-18T22:33:28.533Z,8.17
2023-03-18T22:35:55.546Z,9.10
2023-03-18T22:38:23.787Z,9.17
2023-03-18T22:40:52.703Z,8.63
2023-03-18T22:43:29.038Z,8.47
2023-03-18T22:45:57.219Z,9.07
2023-03-18T22:48:24.196Z,8.90
2023-03-18T22:50:51.650Z,8.63
2023-03-18T22:53:33.963Z,8.10
2023-03-18T22:56:09.843Z,8.30
2023-03-18T22:58:37.326Z,8.33
2023-03-18T23:01:05.316Z,7.63
2023-03-18T23:03:35.199Z,8.73
2023-03-18T23:06:03.618Z,12.60
2023-03-18T23:08:30.960Z,8.57
2023-03-18T23:11:01.655Z,7.07
2023-03-18T23:13:34.489Z,7.30
2023-03-18T23:16:04.162Z,6.70
2023-03-18T23:18:31.448Z,6.73
2023-03-18T23:20:58.842Z,6.70
2023-03-18T23:23:28.116Z,6.17
2023-03-18T23:25:55.018Z,6.33
2023-03-18T23:28:22.035Z,8.53
2023-03-18T23:30:51.594Z,7.10
2023-03-18T23:33:19.277Z,7.83
2023-03-18T23:35:48.117Z,7.70
2023-03-18T23:38:15.485Z,7.60
2023-03-18T23:40:42.473Z,7.90
2023-03-18T23:43:09.387Z,8.27
2023-03-18T23:45:38.350Z,9.10
2023-03-18T23:48:06.167Z,7.50
2023-03-18T23:50:33.463Z,8.40
2023-03-18T23:53:00.819Z,8.90
2023-03-18T23:55:35.454Z,11.00
2023-03-18T23:58:03.703Z,7.60
